Time;durP1;ratioP1;P1;durP2;ratioP2;P2;SDS_P1;SDS_P2;PMS_P1;PMS_P2;Temp;Humidity;BMP_temperature;BMP_pressure;BME280_temperature;BME280_humidity;BME280_pressure;Samples;Min_cycle;Max_cycle;Signal;HPM_P1;HPM_P2
2023/04/07 00:02:21;;;;;;;4.60;3.70;;;23.30;52.00;;;;;;226697;1262;22700;-44
2023/04/07 00:07:25;;;;;;;4.50;3.80;;;23.20;52.30;;;;;;222318;1263;22511;-45
2023/04/07 00:12:29;;;;;;;5.20;3.90;;;23.00;52.40;;;;;;222233;1263;22511;-44
2023/04/07 00:17:33;;;;;;;8.20;4.80;;;22.90;52.70;;;;;;222310;1256;22520;-45
2023/04/07 00:22:37;;;;;;;4.50;3.90;;;22.80;52.80;;;;;;222337;1261;22522;-45
2023/04/07 00:27:41;;;;;;;4.30;3.50;;;22.60;53.40;;;;;;222217;1262;22506;-46
2023/04/07 00:32:45;;;;;;;4.30;3.80;;;22.60;53.50;;;;;;222198;1257;22551;-44
2023/04/07 00:37:49;;;;;;;4.30;3.80;;;22.50;53.60;;;;;;222026;1265;24055;-43
2023/04/07 00:42:54;;;;;;;4.50;3.90;;;22.50;53.30;;;;;;222030;1246;22551;-45
2023/04/07 00:47:58;;;;;;;7.30;4.40;;;22.40;53.40;;;;;;229918;1264;22170;-45
2023/04/07 00:53:03;;;;;;;4.80;3.90;;;22.40;53.20;;;;;;224008;1260;22581;-46
2023/04/07 00:58:08;;;;;;;5.80;4.10;;;22.50;53.00;;;;;;226041;1262;25370;-44
2023/04/07 01:03:25;;;;;;;3.90;3.50;;;22.40;53.00;;;;;;222124;1262;23628;-43
2023/04/07 01:08:37;;;;;;;3.90;3.60;;;22.30;53.20;;;;;;222436;1262;23737;-43
2023/04/07 01:13:44;;;;;;;;;;;22.20;53.40;;;;;;222166;1262;22492;-46
2023/04/07 01:19:11;;;;;;;5.40;3.70;;;22.10;53.60;;;;;;222172;1265;22647;-44
2023/04/07 01:24:17;;;;;;;4.90;3.50;;;22.10;53.60;;;;;;222041;1264;25275;-45
2023/04/07 01:29:31;;;;;;;4.00;3.20;;;22.00;53.70;;;;;;222318;1263;25266;-45
2023/04/07 01:34:37;;;;;;;4.40;4.00;;;21.90;53.70;;;;;;222096;1254;22505;-43
2023/04/07 01:39:41;;;;;;;4.10;3.30;;;21.90;53.60;;;;;;222305;1256;25320;-44
2023/04/07 01:44:47;;;;;;;3.90;3.30;;;21.90;53.70;;;;;;222267;1263;23809;-44
2023/04/07 01:49:51;;;;;;;4.70;4.00;;;21.80;53.80;;;;;;222259;1262;24267;-45
2023/04/07 01:54:56;;;;;;;3.90;3.50;;;22.00;53.60;;;;;;222350;1262;24395;-45
2023/04/07 02:00:01;;;;;;;4.60;3.50;;;22.40;53.10;;;;;;222359;1261;25343;-44
2023/04/07 02:05:20;;;;;;;4.50;3.20;;;22.70;52.50;;;;;;222337;1255;22505;-44
2023/04/07 02:10:27;;;;;;;7.20;4.00;;;22.90;51.80;;;;;;222125;1253;24060;-47
2023/04/07 02:15:36;;;;;;;3.30;2.90;;;23.00;51.50;;;;;;222366;1265;24316;-43
2023/04/07 02:20:42;;;;;;;2.90;2.70;;;23.10;51.10;;;;;;222042;1263;22561;-46
2023/04/07 02:25:47;;;;;;;3.50;3.20;;;23.10;51.30;;;;;;222104;1263;22666;-44
2023/04/07 02:30:51;;;;;;;3.00;2.70;;;23.10;51.60;;;;;;222263;1262;22636;-48
2023/04/07 02:35:55;;;;;;;3.60;3.30;;;23.20;51.30;;;;;;222339;1255;22520;-46
2023/04/07 02:40:59;;;;;;;3.80;2.90;;;23.20;51.10;;;;;;222469;1254;22528;-45
2023/04/07 02:46:05;;;;;;;3.50;2.90;;;23.30;51.00;;;;;;222228;1262;25430;-45
2023/04/07 02:51:09;;;;;;;2.70;2.40;;;23.30;51.00;;;;;;222271;1254;22501;-44
2023/04/07 02:56:15;;;;;;;2.70;2.50;;;23.40;50.80;;;;;;222106;1263;22778;-49
2023/04/07 03:01:19;;;;;;;4.40;2.90;;;23.40;50.80;;;;;;222240;1263;22567;-44
2023/04/07 03:06:23;;;;;;;4.10;2.80;;;23.40;50.70;;;;;;221973;1246;22481;-44
2023/04/07 03:11:36;;;;;;;3.60;3.00;;;23.50;50.00;;;;;;224586;1263;22517;-44
2023/04/07 03:16:42;;;;;;;4.20;3.40;;;23.60;50.30;;;;;;222396;1262;25305;-43
2023/04/07 03:21:48;;;;;;;4.90;3.50;;;23.60;50.40;;;;;;222177;1262;22514;-45
2023/04/07 03:26:52;;;;;;;3.20;2.60;;;23.60;50.40;;;;;;222102;1263;24062;-46
2023/04/07 03:32:00;;;;;;;3.50;2.70;;;23.60;50.40;;;;;;222536;1263;22504;-44
2023/04/07 03:37:04;;;;;;;4.00;2.80;;;23.50;50.80;;;;;;222372;1263;25306;-45
2023/04/07 03:42:10;;;;;;;3.30;2.70;;;23.40;50.60;;;;;;222377;1256;22526;-44
2023/04/07 03:47:16;;;;;;;2.70;2.50;;;23.30;51.10;;;;;;222246;1254;22865;-45
2023/04/07 03:52:22;;;;;;;3.10;2.80;;;23.30;50.70;;;;;;222197;1269;24171;-47
2023/04/07 03:57:30;;;;;;;2.60;2.40;;;23.20;51.00;;;;;;222313;1247;22683;-44
2023/04/07 04:02:34;;;;;;;3.30;2.40;;;23.00;51.00;;;;;;222350;1265;22511;-46
2023/04/07 04:07:39;;;;;;;5.30;2.50;;;22.90;51.70;;;;;;222313;1263;23038;-45
2023/04/07 04:12:45;;;;;;;2.90;2.50;;;22.80;51.60;;;;;;222265;1265;23910;-44
2023/04/07 04:17:51;;;;;;;3.30;2.50;;;22.80;51.70;;;;;;222358;1262;25293;-45
2023/04/07 04:22:56;;;;;;;2.70;2.50;;;22.70;51.90;;;;;;222174;1262;23887;-44
2023/04/07 04:28:01;;;;;;;3.00;2.80;;;22.70;51.60;;;;;;222361;1263;26683;-45
2023/04/07 04:33:06;;;;;;;3.60;2.70;;;22.70;51.70;;;;;;222378;1256;23932;-45
2023/04/07 04:38:16;;;;;;;2.30;2.10;;;22.60;51.80;;;;;;222284;1263;22640;-46
2023/04/07 04:43:26;;;;;;;3.30;2.60;;;22.50;51.80;;;;;;222281;1265;25368;-45
2023/04/07 04:48:31;;;;;;;3.10;2.60;;;22.50;52.00;;;;;;222344;1262;26683;-47
2023/04/07 04:53:35;;;;;;;4.40;2.80;;;22.40;52.10;;;;;;222323;1260;22733;-44
2023/04/07 04:58:44;;;;;;;2.60;2.40;;;22.40;52.10;;;;;;222192;1262;22500;-48
2023/04/07 05:04:12;;;;;;;2.50;2.30;;;22.30;52.50;;;;;;222086;1256;22504;-48
2023/04/07 05:09:21;;;;;;;2.70;2.40;;;22.30;52.10;;;;;;222295;1260;25342;-47
2023/04/07 05:14:25;;;;;;;2.80;2.30;;;22.20;52.30;;;;;;222357;1268;22553;-44
2023/04/07 05:19:33;;;;;;;2.00;1.80;;;22.10;52.40;;;;;;222398;1256;22538;-49
2023/04/07 05:24:45;;;;;;;3.10;2.70;;;22.00;53.10;;;;;;222156;1259;22508;-45
2023/04/07 05:29:50;;;;;;;2.90;2.60;;;22.00;52.60;;;;;;222147;1263;25034;-46
2023/04/07 05:34:59;;;;;;;4.10;2.50;;;21.90;52.70;;;;;;222007;1265;22767;-45
2023/04/07 05:40:08;;;;;;;3.80;2.50;;;21.90;52.80;;;;;;222209;1263;24280;-45
2023/04/07 05:45:12;;;;;;;3.90;2.40;;;22.00;53.00;;;;;;222063;1256;22560;-48
2023/04/07 05:50:19;;;;;;;4.60;2.70;;;22.40;52.30;;;;;;222282;1255;22679;-50
2023/04/07 05:55:24;;;;;;;3.60;2.50;;;22.60;51.80;;;;;;221980;1254;25268;-50
2023/04/07 06:00:28;;;;;;;2.60;2.40;;;22.80;51.90;;;;;;222034;1257;22562;-50
2023/04/07 06:05:42;;;;;;;3.10;2.40;;;23.00;51.60;;;;;;221972;1269;22504;-48
2023/04/07 06:10:47;;;;;;;2.90;2.60;;;23.10;52.10;;;;;;222213;1268;25359;-50
2023/04/07 06:15:51;;;;;;;6.10;2.10;;;23.20;51.60;;;;;;222384;1263;22514;-51
2023/04/07 06:20:55;;;;;;;4.40;2.40;;;23.20;51.80;;;;;;222111;1267;22587;-48
2023/04/07 06:26:01;;;;;;;7.40;3.40;;;23.20;51.30;;;;;;222307;1263;144918;-54
2023/04/07 06:31:07;;;;;;;17.50;4.00;;;23.30;51.60;;;;;;222399;1263;22521;-60
2023/04/07 06:36:12;;;;;;;8.90;3.00;;;23.40;51.80;;;;;;222449;1264;24210;-56
2023/04/07 06:41:16;;;;;;;6.80;3.30;;;23.40;51.40;;;;;;222485;1266;23908;-53
2023/04/07 06:46:20;;;;;;;3.30;2.40;;;23.40;51.70;;;;;;222168;1254;22507;-55
2023/04/07 06:51:25;;;;;;;8.50;2.80;;;23.40;52.20;;;;;;222187;1262;22531;-57
2023/04/07 06:56:29;;;;;;;4.70;2.30;;;23.30;52.30;;;;;;222488;1257;22670;-55
2023/04/07 07:01:33;;;;;;;6.10;2.50;;;23.30;51.70;;;;;;222313;1249;23912;-52
2023/04/07 07:06:37;;;;;;;5.70;2.40;;;23.10;52.30;;;;;;222473;1257;22537;-53
2023/04/07 07:11:41;;;;;;;8.00;2.70;;;23.10;53.40;;;;;;222560;1264;25462;-52
2023/04/07 07:16:46;;;;;;;9.20;3.20;;;22.90;52.30;;;;;;222293;1254;22514;-49
2023/04/07 07:21:50;;;;;;;6.20;2.70;;;22.70;52.90;;;;;;226086;1263;22553;-52
2023/04/07 07:26:56;;;;;;;4.90;2.90;;;22.60;52.50;;;;;;222397;1264;22638;-53
2023/04/07 07:32:00;;;;;;;6.40;3.00;;;22.60;52.80;;;;;;222501;1254;25246;-52
2023/04/07 07:37:04;;;;;;;9.10;4.90;;;22.50;52.40;;;;;;222330;1263;24408;-49
2023/04/07 07:42:08;;;;;;;4.00;3.00;;;22.30;52.40;;;;;;222099;1257;22528;-51
2023/04/07 07:47:13;;;;;;;7.60;3.00;;;22.30;52.90;;;;;;222184;1264;25451;-50
2023/04/07 07:52:18;;;;;;;4.90;2.80;;;22.20;52.60;;;;;;221832;1248;22883;-50
2023/04/07 07:57:22;;;;;;;10.80;2.70;;;22.20;52.80;;;;;;222244;1254;25395;-55
2023/04/07 08:02:32;;;;;;;4.60;3.20;;;22.30;52.80;;;;;;222317;1255;24414;-56
2023/04/07 08:07:37;;;;;;;9.20;3.00;;;22.30;52.40;;;;;;222168;1257;24695;-52
2023/04/07 08:12:41;;;;;;;5.10;2.70;;;22.20;52.50;;;;;;222216;1251;23956;-56
2023/04/07 08:17:46;;;;;;;4.40;2.40;;;22.20;52.40;;;;;;222329;1267;22514;-63
2023/04/07 08:22:50;;;;;;;3.60;2.50;;;22.10;52.60;;;;;;222228;1265;22496;-50
2023/04/07 08:27:55;;;;;;;5.90;2.30;;;22.10;53.00;;;;;;222159;1255;25246;-54
2023/04/07 08:33:00;;;;;;;4.50;2.90;;;22.10;52.90;;;;;;222134;1254;22515;-49
2023/04/07 08:38:05;;;;;;;5.00;2.70;;;22.00;54.20;;;;;;222243;1260;22514;-51
2023/04/07 08:43:10;;;;;;;7.60;3.60;;;21.90;54.40;;;;;;222187;1264;24302;-51
2023/04/07 08:48:16;;;;;;;4.10;2.60;;;21.90;54.30;;;;;;222444;1258;25516;-53
2023/04/07 08:53:30;;;;;;;5.40;2.50;;;21.80;54.80;;;;;;222187;1261;25579;-56
2023/04/07 08:58:35;;;;;;;7.20;2.70;;;21.70;55.00;;;;;;222163;1261;22511;-49
2023/04/07 09:03:43;;;;;;;2.90;2.60;;;21.70;55.20;;;;;;222312;1269;22654;-50
2023/04/07 09:08:51;;;;;;;6.00;2.80;;;21.70;55.50;;;;;;222457;1254;22512;-49
2023/04/07 09:14:00;;;;;;;5.30;2.30;;;21.70;55.70;;;;;;222778;1263;22570;-52
2023/04/07 09:19:06;;;;;;;4.50;2.40;;;21.60;56.30;;;;;;222359;1255;22529;-47
2023/04/07 09:24:25;;;;;;;3.40;2.20;;;21.60;56.50;;;;;;222389;1257;25460;-47
2023/04/07 09:29:29;;;;;;;4.20;2.80;;;21.50;56.20;;;;;;222282;1267;22521;-50
2023/04/07 09:34:36;;;;;;;4.30;2.60;;;21.90;55.70;;;;;;222511;1263;22517;-54
2023/04/07 09:39:51;;;;;;;5.00;2.90;;;22.20;54.90;;;;;;222493;1254;25269;-55
2023/04/07 09:44:55;;;;;;;5.20;2.30;;;22.40;54.80;;;;;;222462;1245;22518;-55
2023/04/07 09:50:05;;;;;;;3.30;2.70;;;22.60;54.90;;;;;;222450;1254;22511;-54
2023/04/07 09:55:10;;;;;;;7.60;3.20;;;22.70;54.10;;;;;;222339;1254;25358;-52
2023/04/07 10:00:15;;;;;;;6.80;3.40;;;22.90;54.10;;;;;;222357;1262;22827;-48
2023/04/07 10:05:22;;;;;;;7.30;3.00;;;23.00;54.50;;;;;;222075;1260;25312;-50
2023/04/07 10:10:27;;;;;;;7.90;3.30;;;23.10;54.10;;;;;;222475;1262;22525;-46
2023/04/07 10:15:32;;;;;;;5.50;3.40;;;23.20;54.10;;;;;;222560;1246;22523;-51
2023/04/07 10:20:42;;;;;;;6.40;3.80;;;23.20;54.60;;;;;;222471;1262;22610;-54
2023/04/07 10:25:51;;;;;;;6.20;3.30;;;23.30;54.20;;;;;;222518;1256;24268;-52
2023/04/07 10:30:57;;;;;;;6.20;3.60;;;23.30;54.20;;;;;;222752;1264;23887;-56
2023/04/07 10:36:05;;;;;;;6.20;3.80;;;23.30;54.50;;;;;;222466;1260;24399;-56
2023/04/07 10:41:36;;;;;;;4.50;3.20;;;23.30;54.90;;;;;;222616;1254;24057;-49
2023/04/07 10:46:50;;;;;;;6.30;3.40;;;23.20;55.10;;;;;;222412;1262;24193;-52
2023/04/07 10:52:10;;;;;;;6.20;3.60;;;23.10;55.40;;;;;;222618;1254;22524;-51
2023/04/07 10:57:15;;;;;;;9.60;5.20;;;23.00;56.10;;;;;;222594;1254;22670;-49
2023/04/07 11:02:22;;;;;;;12.40;4.90;;;23.10;56.60;;;;;;222279;1255;25161;-54
2023/04/07 11:07:50;;;;;;;7.90;4.40;;;23.10;57.90;;;;;;222390;1253;23091;-50
2023/04/07 11:13:11;;;;;;;9.40;4.40;;;23.10;58.80;;;;;;222466;1254;22532;-57
2023/04/07 11:18:22;;;;;;;12.40;5.20;;;23.00;58.20;;;;;;222391;1254;24512;-55
2023/04/07 11:23:26;;;;;;;11.00;5.30;;;23.00;58.60;;;;;;222529;1255;25257;-58
2023/04/07 11:28:31;;;;;;;5.90;4.60;;;23.00;58.80;;;;;;222535;1264;25342;-52
2023/04/07 11:33:37;;;;;;;6.60;3.90;;;22.90;59.20;;;;;;222538;1261;22528;-54
2023/04/07 11:38:44;;;;;;;6.50;4.20;;;22.80;59.20;;;;;;222366;1254;22511;-50
2023/04/07 11:44:03;;;;;;;6.80;4.00;;;22.70;58.80;;;;;;222628;1264;22534;-50
2023/04/07 11:49:10;;;;;;;5.90;3.90;;;22.70;58.70;;;;;;222324;1264;22592;-53
2023/04/07 11:54:16;;;;;;;6.20;4.10;;;22.60;59.10;;;;;;222404;1253;25032;-49
2023/04/07 11:59:22;;;;;;;7.50;4.20;;;22.50;59.10;;;;;;222436;1254;22511;-49
2023/04/07 12:04:26;;;;;;;6.30;3.60;;;22.40;59.50;;;;;;222358;1254;22515;-51
2023/04/07 12:09:36;;;;;;;7.10;4.20;;;22.40;59.10;;;;;;222360;1262;24222;-50
2023/04/07 12:14:40;;;;;;;5.80;4.00;;;22.30;58.60;;;;;;222225;1264;24340;-50
2023/04/07 12:19:44;;;;;;;4.30;3.40;;;22.30;58.60;;;;;;222266;1264;25333;-54
2023/04/07 12:24:51;;;;;;;5.10;4.00;;;22.20;58.50;;;;;;222213;1262;22508;-54
2023/04/07 12:30:03;;;;;;;5.10;3.40;;;22.10;58.50;;;;;;222322;1262;24188;-54
2023/04/07 12:35:07;;;;;;;6.90;3.80;;;22.10;58.50;;;;;;222306;1262;24347;-60
2023/04/07 12:40:11;;;;;;;4.20;3.70;;;22.00;58.50;;;;;;222319;1256;24363;-53
2023/04/07 12:45:15;;;;;;;3.40;3.10;;;22.00;58.40;;;;;;222384;1262;22778;-50
2023/04/07 12:50:20;;;;;;;4.30;3.70;;;22.00;58.50;;;;;;222140;1256;25297;-57
2023/04/07 12:55:24;;;;;;;4.20;3.50;;;21.90;58.40;;;;;;222259;1265;23022;-50
2023/04/07 13:00:31;;;;;;;5.60;3.80;;;21.90;58.40;;;;;;222168;1262;22540;-46
2023/04/07 13:05:38;;;;;;;5.90;3.80;;;21.90;58.40;;;;;;222294;1255;22634;-57
2023/04/07 13:10:42;;;;;;;4.10;3.50;;;21.80;58.30;;;;;;222272;1255;22519;-55
2023/04/07 13:15:46;;;;;;;6.30;3.80;;;21.90;58.00;;;;;;222339;1254;22524;-55
2023/04/07 13:20:51;;;;;;;7.80;3.20;;;21.80;58.30;;;;;;222147;1262;22534;-50
2023/04/07 13:26:15;;;;;;;5.30;3.80;;;21.70;58.50;;;;;;222286;1255;25395;-49
2023/04/07 13:31:22;;;;;;;5.20;3.30;;;21.70;58.50;;;;;;222268;1264;26498;-49
2023/04/07 13:36:27;;;;;;;4.40;3.30;;;21.70;58.40;;;;;;222280;1262;22637;-50
2023/04/07 13:41:31;;;;;;;5.30;3.60;;;21.70;58.40;;;;;;222541;1262;24180;-53
2023/04/07 13:46:35;;;;;;;4.90;3.20;;;21.60;58.40;;;;;;222277;1256;26668;-54
2023/04/07 13:51:40;;;;;;;4.80;3.40;;;21.60;58.10;;;;;;222203;1265;24308;-55
2023/04/07 13:56:47;;;;;;;3.70;3.20;;;21.60;58.20;;;;;;222231;1256;24216;-51
2023/04/07 14:01:51;;;;;;;4.00;3.20;;;21.60;58.20;;;;;;222796;1262;25393;-54
2023/04/07 14:06:56;;;;;;;5.50;3.20;;;21.60;57.80;;;;;;225907;1262;25554;-52
2023/04/07 14:12:00;;;;;;;5.90;3.50;;;22.10;56.40;;;;;;226302;1262;22518;-53
2023/04/07 14:17:05;;;;;;;4.30;3.90;;;22.40;54.80;;;;;;222001;1255;24086;-51
2023/04/07 14:22:10;;;;;;;4.40;3.90;;;22.50;54.60;;;;;;222303;1263;22526;-55
2023/04/07 14:27:19;;;;;;;3.80;3.40;;;22.60;54.60;;;;;;222440;1255;25277;-57
2023/04/07 14:32:23;;;;;;;4.40;3.70;;;22.70;54.40;;;;;;222041;1262;24293;-60
2023/04/07 14:37:28;;;;;;;4.30;3.90;;;22.80;54.20;;;;;;222270;1265;24865;-61
2023/04/07 14:42:33;;;;;;;4.40;3.10;;;22.90;53.80;;;;;;222590;1255;23883;-56
2023/04/07 14:47:37;;;;;;;4.70;3.30;;;23.00;53.60;;;;;;222545;1247;22516;-54
2023/04/07 14:52:42;;;;;;;5.40;3.50;;;22.90;53.70;;;;;;222394;1260;24257;-55
2023/04/07 14:57:47;;;;;;;7.40;3.20;;;22.90;53.50;;;;;;222264;1257;25345;-59
2023/04/07 15:02:54;;;;;;;9.30;3.40;;;23.10;53.40;;;;;;222586;1253;22633;-61
2023/04/07 15:08:00;;;;;;;9.60;4.80;;;23.10;53.20;;;;;;222293;1262;22576;-52
2023/04/07 15:13:05;;;;;;;8.50;3.80;;;23.10;52.70;;;;;;222513;1259;25419;-50
2023/04/07 15:18:09;;;;;;;11.20;3.30;;;23.10;51.90;;;;;;222497;1260;22614;-50
2023/04/07 15:23:15;;;;;;;4.30;2.80;;;23.20;51.70;;;;;;222788;1260;22636;-50
2023/04/07 15:28:19;;;;;;;6.30;3.30;;;23.30;52.20;;;;;;222347;1265;22799;-54
2023/04/07 15:33:24;;;;;;;9.20;3.50;;;23.30;52.30;;;;;;223110;1255;22532;-55
2023/04/07 15:38:43;;;;;;;6.10;3.40;;;23.30;51.80;;;;;;221903;1263;22527;-53
2023/04/07 15:43:50;;;;;;;6.40;3.00;;;23.30;52.30;;;;;;222076;1255;22534;-53
2023/04/07 15:48:54;;;;;;;6.00;3.20;;;23.20;52.60;;;;;;222787;1260;24177;-57
2023/04/07 15:54:07;;;;;;;5.60;3.40;;;23.10;53.40;;;;;;222520;1256;24197;-61
2023/04/07 15:59:15;;;;;;;100.70;85.10;;;23.10;53.70;;;;;;222319;1262;25604;-52
2023/04/07 16:04:20;;;;;;;99.60;85.80;;;23.00;54.10;;;;;;222354;1262;22507;-58
2023/04/07 16:09:26;;;;;;;93.40;82.30;;;23.00;54.10;;;;;;222367;1246;25671;-57
2023/04/07 16:14:30;;;;;;;96.50;86.00;;;23.00;54.30;;;;;;222478;1262;23102;-62
2023/04/07 16:19:35;;;;;;;86.50;77.00;;;23.00;54.50;;;;;;222431;1256;25324;-57
2023/04/07 16:24:39;;;;;;;92.40;77.40;;;23.10;54.30;;;;;;222363;1262;22762;-58
2023/04/07 16:29:44;;;;;;;88.90;76.60;;;23.00;54.70;;;;;;222414;1262;22813;-60
2023/04/07 16:34:51;;;;;;;86.50;74.00;;;22.90;54.90;;;;;;222276;1260;22670;-56
2023/04/07 16:39:56;;;;;;;82.40;73.40;;;22.90;55.30;;;;;;222343;1261;22606;-55
2023/04/07 16:45:01;;;;;;;81.70;72.80;;;23.00;55.20;;;;;;222465;1248;22541;-57
2023/04/07 16:50:06;;;;;;;78.80;70.10;;;23.00;55.50;;;;;;222445;1249;24391;-60
2023/04/07 16:55:10;;;;;;;76.00;64.10;;;23.00;55.50;;;;;;222511;1262;24324;-55
2023/04/07 17:00:16;;;;;;;72.50;64.70;;;22.80;55.30;;;;;;222403;1262;24177;-57
2023/04/07 17:05:20;;;;;;;68.60;61.00;;;22.80;55.70;;;;;;222417;1265;22912;-59
2023/04/07 17:10:24;;;;;;;69.00;57.90;;;22.70;55.90;;;;;;222709;1260;22602;-53
2023/04/07 17:15:28;;;;;;;62.90;55.10;;;22.70;55.80;;;;;;222523;1262;24189;-56
2023/04/07 17:20:33;;;;;;;58.50;52.10;;;22.60;56.00;;;;;;223360;1265;22641;-56
2023/04/07 17:25:37;;;;;;;58.90;50.40;;;22.60;55.50;;;;;;222097;1256;25218;-57
2023/04/07 17:30:41;;;;;;;55.80;49.30;;;22.60;55.60;;;;;;222261;1255;22636;-55
2023/04/07 17:35:48;;;;;;;51.10;44.40;;;22.60;55.30;;;;;;222424;1255;23891;-55
2023/04/07 17:40:58;;;;;;;52.20;44.10;;;22.50;54.80;;;;;;222377;1255;22645;-57
2023/04/07 17:46:06;;;;;;;47.60;39.80;;;22.50;54.60;;;;;;222435;1254;25225;-57
2023/04/07 17:51:14;;;;;;;43.20;38.50;;;22.40;54.10;;;;;;222469;1257;24194;-59
2023/04/07 17:56:20;;;;;;;39.60;35.30;;;22.30;54.20;;;;;;222470;1262;23259;-58
2023/04/07 18:01:25;;;;;;;42.70;34.50;;;22.30;54.00;;;;;;222517;1254;24511;-59
2023/04/07 18:06:31;;;;;;;35.50;31.30;;;22.30;53.70;;;;;;222554;1262;22510;-60
2023/04/07 18:11:36;;;;;;;32.60;29.20;;;22.30;53.10;;;;;;222513;1256;25340;-58
2023/04/07 18:16:41;;;;;;;34.00;28.40;;;22.20;53.20;;;;;;222271;1254;22520;-58
2023/04/07 18:21:49;;;;;;;30.00;26.80;;;22.10;52.90;;;;;;222446;1253;22507;-55
2023/04/07 18:26:58;;;;;;;27.00;24.30;;;22.10;52.80;;;;;;222322;1256;165397;-61
2023/04/07 18:32:09;;;;;;;24.80;21.90;;;22.10;52.60;;;;;;222195;1265;24232;-54
2023/04/07 18:37:18;;;;;;;24.80;22.30;;;22.00;53.10;;;;;;222495;1263;25476;-57
2023/04/07 18:42:24;;;;;;;27.10;22.60;;;22.00;53.60;;;;;;222491;1261;23942;-55
2023/04/07 18:47:28;;;;;;;25.10;22.20;;;22.00;53.30;;;;;;222527;1262;22507;-60
2023/04/07 18:52:34;;;;;;;22.30;19.90;;;22.00;53.80;;;;;;222375;1253;22520;-58
2023/04/07 18:57:39;;;;;;;24.10;20.20;;;21.80;54.20;;;;;;222257;1260;22848;-57
2023/04/07 19:02:44;;;;;;;21.00;18.50;;;21.80;55.20;;;;;;222221;1258;22569;-55
2023/04/07 19:07:49;;;;;;;22.00;19.60;;;21.80;55.10;;;;;;223750;1262;23145;-56
2023/04/07 19:12:53;;;;;;;23.00;19.00;;;21.80;55.90;;;;;;222422;1262;22614;-57
2023/04/07 19:17:57;;;;;;;21.40;19.20;;;21.80;56.30;;;;;;222542;1263;24195;-57
2023/04/07 19:23:02;;;;;;;22.10;18.20;;;21.80;56.50;;;;;;222337;1254;22927;-61
2023/04/07 19:28:07;;;;;;;17.10;15.10;;;21.80;56.20;;;;;;222413;1265;24364;-60
2023/04/07 19:33:13;;;;;;;48.40;24.50;;;21.70;56.40;;;;;;222539;1256;24972;-59
2023/04/07 19:38:17;;;;;;;45.30;23.80;;;21.70;58.00;;;;;;222385;1263;22636;-54
2023/04/07 19:43:22;;;;;;;43.30;21.40;;;21.70;57.20;;;;;;222660;1259;22659;-57
2023/04/07 19:48:26;;;;;;;47.80;27.10;;;21.70;56.90;;;;;;222238;1268;23174;-61
2023/04/07 19:53:30;;;;;;;44.90;23.70;;;21.70;56.50;;;;;;222192;1261;25271;-60
2023/04/07 19:58:36;;;;;;;61.20;30.80;;;21.80;56.80;;;;;;222547;1265;22521;-58
2023/04/07 20:03:41;;;;;;;68.30;31.30;;;21.70;57.80;;;;;;222410;1262;22511;-56
2023/04/07 20:08:47;;;;;;;57.60;27.80;;;21.60;58.70;;;;;;222444;1260;22774;-57
2023/04/07 20:13:51;;;;;;;52.40;28.60;;;22.00;58.00;;;;;;222163;1262;22629;-56
2023/04/07 20:18:55;;;;;;;55.60;29.10;;;22.20;57.30;;;;;;222542;1254;22630;-52
2023/04/07 20:23:59;;;;;;;49.10;26.60;;;22.10;57.10;;;;;;222438;1258;24257;-56
2023/04/07 20:29:03;;;;;;;51.50;25.40;;;22.00;57.80;;;;;;222202;1256;22650;-53
2023/04/07 20:34:09;;;;;;;47.40;26.20;;;21.90;58.50;;;;;;222398;1262;22527;-57
2023/04/07 20:39:15;;;;;;;48.00;25.40;;;21.80;58.30;;;;;;222280;1265;22753;-56
2023/04/07 20:44:19;;;;;;;74.40;36.40;;;21.70;60.00;;;;;;222479;1246;24248;-57
2023/04/07 20:49:23;;;;;;;57.60;32.30;;;21.70;60.20;;;;;;222507;1265;22579;-58
2023/04/07 20:54:28;;;;;;;61.10;31.90;;;21.70;59.90;;;;;;222194;1264;24224;-57
2023/04/07 20:59:32;;;;;;;55.90;31.30;;;21.70;60.50;;;;;;222319;1254;24324;-59
2023/04/07 21:04:36;;;;;;;50.90;27.70;;;21.70;60.10;;;;;;222444;1254;22508;-54
2023/04/07 21:09:41;;;;;;;51.40;27.50;;;21.70;58.80;;;;;;222398;1269;22515;-55
2023/04/07 21:14:45;;;;;;;48.60;26.40;;;21.60;59.00;;;;;;222439;1265;22640;-56
2023/04/07 21:19:51;;;;;;;55.40;26.90;;;21.50;59.20;;;;;;222422;1263;22542;-58
2023/04/07 21:24:55;;;;;;;49.40;27.30;;;21.80;63.00;;;;;;222060;1265;22528;-55
2023/04/07 21:30:03;;;;;;;51.40;25.40;;;21.60;62.40;;;;;;222505;1266;25309;-55
2023/04/07 21:35:07;;;;;;;48.50;24.80;;;21.50;61.70;;;;;;222231;1265;23502;-59
2023/04/07 21:40:13;;;;;;;40.90;23.60;;;21.60;62.70;;;;;;222414;1254;22730;-52
2023/04/07 21:45:22;;;;;;;43.40;24.00;;;21.50;63.00;;;;;;222401;1260;22652;-56
2023/04/07 21:50:27;;;;;;;41.80;24.30;;;21.60;62.30;;;;;;222417;1262;25454;-59
2023/04/07 21:55:31;;;;;;;40.70;22.70;;;21.60;61.70;;;;;;222413;1262;22769;-54
2023/04/07 22:00:37;;;;;;;39.80;21.00;;;21.60;61.50;;;;;;222151;1262;22607;-55
2023/04/07 22:05:42;;;;;;;35.70;21.00;;;21.60;61.30;;;;;;222373;1253;24317;-60
2023/04/07 22:10:47;;;;;;;37.10;20.80;;;21.50;62.00;;;;;;222622;1262;25320;-55
2023/04/07 22:15:51;;;;;;;36.90;21.70;;;21.40;62.00;;;;;;222464;1254;24220;-53
2023/04/07 22:20:57;;;;;;;35.90;20.50;;;21.30;62.10;;;;;;222407;1264;25258;-53
2023/04/07 22:26:01;;;;;;;31.50;19.40;;;21.30;62.30;;;;;;222334;1262;23888;-53
2023/04/07 22:31:06;;;;;;;35.00;19.80;;;21.40;61.90;;;;;;222553;1262;22623;-50
2023/04/07 22:36:11;;;;;;;33.30;19.60;;;21.40;61.80;;;;;;222385;1262;24127;-54
2023/04/07 22:41:15;;;;;;;29.20;17.50;;;21.70;61.40;;;;;;222494;1256;22513;-53
2023/04/07 22:46:19;;;;;;;28.60;17.00;;;22.10;60.60;;;;;;222335;1256;23948;-56
2023/04/07 22:51:25;;;;;;;26.10;17.50;;;22.50;59.10;;;;;;222404;1262;22641;-56
2023/04/07 22:56:30;;;;;;;24.50;16.70;;;22.60;58.80;;;;;;222323;1262;23890;-60
2023/04/07 23:01:34;;;;;;;23.40;15.80;;;22.70;58.60;;;;;;222470;1256;24218;-51
2023/04/07 23:06:42;;;;;;;20.90;14.60;;;22.80;58.40;;;;;;222486;1261;22525;-52
2023/04/07 23:11:46;;;;;;;21.40;14.60;;;22.90;58.80;;;;;;222369;1262;22513;-51
2023/04/07 23:16:50;;;;;;;20.00;14.20;;;23.00;58.10;;;;;;222408;1259;23931;-49
2023/04/07 23:21:54;;;;;;;19.00;14.10;;;23.10;57.70;;;;;;222434;1262;23870;-49
2023/04/07 23:26:58;;;;;;;19.50;14.00;;;23.10;57.60;;;;;;222630;1256;22536;-53
2023/04/07 23:32:03;;;;;;;18.40;13.80;;;23.10;57.60;;;;;;222046;1258;22578;-51
2023/04/07 23:37:07;;;;;;;20.90;13.10;;;23.10;57.30;;;;;;222245;1253;22523;-52
2023/04/07 23:42:13;;;;;;;17.20;12.30;;;23.10;57.60;;;;;;222351;1262;24311;-52
2023/04/07 23:47:16;;;;;;;17.90;12.00;;;23.00;57.20;;;;;;222969;1259;24301;-54
2023/04/07 23:52:22;;;;;;;18.30;12.80;;;22.90;57.50;;;;;;222408;1262;22742;-49
2023/04/07 23:57:26;;;;;;;19.90;13.30;;;22.90;57.50;;;;;;222266;1246;26446;-50
